sensor_id;sensor_type;location;lat;lon;timestamp;temperature;humidity
814;DHT22;389;48.710;9.392;2022-10-19T00:01:18;13.70;99.90
814;DHT22;389;48.710;9.392;2022-10-19T00:03:45;13.70;99.90
814;DHT22;389;48.710;9.392;2022-10-19T00:06:27;13.60;99.90
814;DHT22;389;48.710;9.392;2022-10-19T00:08:54;13.50;99.90
814;DHT22;389;48.710;9.392;2022-10-19T00:11:20;13.50;99.90
814;DHT22;389;48.710;9.392;2022-10-19T00:13:46;13.50;99.90
814;DHT22;389;48.710;9.392;2022-10-19T00:16:13;13.40;99.90
814;DHT22;389;48.710;9.392;2022-10-19T00:18:40;13.60;99.90
814;DHT22;389;48.710;9.392;2022-10-19T00:21:08;13.60;99.90
814;DHT22;389;48.710;9.392;2022-10-19T00:23:34;13.50;99.90
814;DHT22;389;48.710;9.392;2022-10-19T00:26:00;13.50;99.90
814;DHT22;389;48.710;9.392;2022-10-19T00:28:27;13.60;99.90
814;DHT22;389;48.710;9.392;2022-10-19T00:30:53;13.80;99.90
814;DHT22;389;48.710;9.392;2022-10-19T00:33:19;13.70;99.90
814;DHT22;389;48.710;9.392;2022-10-19T00:35:49;13.80;99.90
814;DHT22;389;48.710;9.392;2022-10-19T00:38:16;13.90;99.90
814;DHT22;389;48.710;9.392;2022-10-19T00:40:42;14.20;99.90
814;DHT22;389;48.710;9.392;2022-10-19T00:43:20;14.20;99.90
814;DHT22;389;48.710;9.392;2022-10-19T00:45:46;14.30;99.90
814;DHT22;389;48.710;9.392;2022-10-19T00:48:16;14.20;99.90
814;DHT22;389;48.710;9.392;2022-10-19T00:50:43;14.40;99.90
814;DHT22;389;48.710;9.392;2022-10-19T00:53:10;14.30;99.90
814;DHT22;389;48.710;9.392;2022-10-19T00:55:36;14.40;99.90
814;DHT22;389;48.710;9.392;2022-10-19T00:58:03;14.40;99.90
814;DHT22;389;48.710;9.392;2022-10-19T01:00:29;14.50;99.90
814;DHT22;389;48.710;9.392;2022-10-19T01:02:55;14.60;99.90
814;DHT22;389;48.710;9.392;2022-10-19T01:05:21;14.50;99.90
814;DHT22;389;48.710;9.392;2022-10-19T01:07:47;14.60;99.90
814;DHT22;389;48.710;9.392;2022-10-19T01:10:13;14.70;99.90
814;DHT22;389;48.710;9.392;2022-10-19T01:13:05;14.60;99.90
814;DHT22;389;48.710;9.392;2022-10-19T01:16:00;14.70;99.90
814;DHT22;389;48.710;9.392;2022-10-19T01:18:43;14.70;99.90
814;DHT22;389;48.710;9.392;2022-10-19T01:21:33;14.70;99.90
814;DHT22;389;48.710;9.392;2022-10-19T01:32:26;14.80;99.90
814;DHT22;389;48.710;9.392;2022-10-19T01:35:20;14.80;99.90
814;DHT22;389;48.710;9.392;2022-10-19T01:38:06;14.80;99.90
814;DHT22;389;48.710;9.392;2022-10-19T01:43:16;14.90;99.90
814;DHT22;389;48.710;9.392;2022-10-19T01:45:59;14.90;99.90
814;DHT22;389;48.710;9.392;2022-10-19T01:48:32;15.00;99.90
814;DHT22;389;48.710;9.392;2022-10-19T01:51:17;14.90;99.90
814;DHT22;389;48.710;9.392;2022-10-19T01:53:46;14.90;99.90
814;DHT22;389;48.710;9.392;2022-10-19T01:56:16;15.00;99.90
814;DHT22;389;48.710;9.392;2022-10-19T01:58:43;14.90;99.90
814;DHT22;389;48.710;9.392;2022-10-19T02:01:10;15.00;99.90
814;DHT22;389;48.710;9.392;2022-10-19T02:03:38;15.00;99.90
814;DHT22;389;48.710;9.392;2022-10-19T02:06:06;15.00;99.90
814;DHT22;389;48.710;9.392;2022-10-19T02:08:53;15.00;99.90
814;DHT22;389;48.710;9.392;2022-10-19T02:11:20;15.00;99.90
814;DHT22;389;48.710;9.392;2022-10-19T02:13:50;15.00;99.90
814;DHT22;389;48.710;9.392;2022-10-19T02:16:28;14.90;99.90
814;DHT22;389;48.710;9.392;2022-10-19T02:18:55;14.90;99.90
814;DHT22;389;48.710;9.392;2022-10-19T02:21:22;15.10;99.90
814;DHT22;389;48.710;9.392;2022-10-19T02:23:48;14.90;99.90
814;DHT22;389;48.710;9.392;2022-10-19T02:26:13;14.90;99.90
814;DHT22;389;48.710;9.392;2022-10-19T02:28:39;14.90;99.90
814;DHT22;389;48.710;9.392;2022-10-19T02:31:05;15.00;99.90
814;DHT22;389;48.710;9.392;2022-10-19T02:33:31;15.00;99.90
814;DHT22;389;48.710;9.392;2022-10-19T02:35:57;15.00;99.90
814;DHT22;389;48.710;9.392;2022-10-19T02:38:24;15.00;99.90
814;DHT22;389;48.710;9.392;2022-10-19T02:43:26;15.00;99.90
814;DHT22;389;48.710;9.392;2022-10-19T02:46:00;15.10;99.90
814;DHT22;389;48.710;9.392;2022-10-19T02:48:29;15.10;99.90
814;DHT22;389;48.710;9.392;2022-10-19T02:50:56;15.00;99.90
814;DHT22;389;48.710;9.392;2022-10-19T02:53:21;15.00;99.90
814;DHT22;389;48.710;9.392;2022-10-19T02:55:48;15.00;99.90
814;DHT22;389;48.710;9.392;2022-10-19T02:58:14;15.10;99.90
814;DHT22;389;48.710;9.392;2022-10-19T03:00:40;15.10;99.90
814;DHT22;389;48.710;9.392;2022-10-19T03:03:06;15.00;99.90
814;DHT22;389;48.710;9.392;2022-10-19T03:05:31;15.00;99.90
814;DHT22;389;48.710;9.392;2022-10-19T03:07:57;15.00;99.90
814;DHT22;389;48.710;9.392;2022-10-19T03:10:23;15.10;99.90
814;DHT22;389;48.710;9.392;2022-10-19T03:12:48;15.00;99.90
814;DHT22;389;48.710;9.392;2022-10-19T03:15:18;15.00;99.90
814;DHT22;389;48.710;9.392;2022-10-19T03:17:44;15.00;99.90
814;DHT22;389;48.710;9.392;2022-10-19T03:20:10;15.00;99.90
814;DHT22;389;48.710;9.392;2022-10-19T03:22:36;15.00;99.90
814;DHT22;389;48.710;9.392;2022-10-19T03:25:02;15.00;99.90
814;DHT22;389;48.710;9.392;2022-10-19T03:27:28;14.90;99.90
814;DHT22;389;48.710;9.392;2022-10-19T03:29:53;14.90;99.90
814;DHT22;389;48.710;9.392;2022-10-19T03:32:19;14.90;99.90
814;DHT22;389;48.710;9.392;2022-10-19T03:34:44;14.90;99.90
814;DHT22;389;48.710;9.392;2022-10-19T03:37:10;14.80;99.90
814;DHT22;389;48.710;9.392;2022-10-19T03:39:37;14.80;99.90
814;DHT22;389;48.710;9.392;2022-10-19T03:42:03;14.80;99.90
814;DHT22;389;48.710;9.392;2022-10-19T03:44:31;14.80;99.90
814;DHT22;389;48.710;9.392;2022-10-19T03:46:57;14.70;99.90
814;DHT22;389;48.710;9.392;2022-10-19T03:49:22;14.70;99.90
814;DHT22;389;48.710;9.392;2022-10-19T03:51:48;14.70;99.90
814;DHT22;389;48.710;9.392;2022-10-19T03:54:15;14.70;99.90
814;DHT22;389;48.710;9.392;2022-10-19T03:56:41;14.70;99.90
814;DHT22;389;48.710;9.392;2022-10-19T03:59:07;14.60;99.90
814;DHT22;389;48.710;9.392;2022-10-19T04:01:38;14.60;99.90
814;DHT22;389;48.710;9.392;2022-10-19T04:04:10;14.60;99.90
814;DHT22;389;48.710;9.392;2022-10-19T04:06:38;14.60;99.90
814;DHT22;389;48.710;9.392;2022-10-19T04:09:05;14.60;99.90
814;DHT22;389;48.710;9.392;2022-10-19T04:11:33;14.50;99.90
814;DHT22;389;48.710;9.392;2022-10-19T04:13:59;14.40;99.90
814;DHT22;389;48.710;9.392;2022-10-19T04:16:26;14.40;99.90
814;DHT22;389;48.710;9.392;2022-10-19T04:18:52;14.40;99.90
814;DHT22;389;48.710;9.392;2022-10-19T04:21:26;14.40;99.90
814;DHT22;389;48.710;9.392;2022-10-19T04:23:58;14.40;99.90
814;DHT22;389;48.710;9.392;2022-10-19T04:26:24;14.40;99.90
814;DHT22;389;48.710;9.392;2022-10-19T04:28:50;14.50;99.90
814;DHT22;389;48.710;9.392;2022-10-19T04:31:15;14.40;99.90
814;DHT22;389;48.710;9.392;2022-10-19T04:33:41;14.40;99.90
814;DHT22;389;48.710;9.392;2022-10-19T04:36:09;14.40;99.90
814;DHT22;389;48.710;9.392;2022-10-19T04:38:35;14.40;99.90
814;DHT22;389;48.710;9.392;2022-10-19T04:41:10;14.50;99.90
814;DHT22;389;48.710;9.392;2022-10-19T04:43:36;14.50;99.90
814;DHT22;389;48.710;9.392;2022-10-19T04:46:07;14.50;99.90
814;DHT22;389;48.710;9.392;2022-10-19T04:48:33;14.60;99.90
814;DHT22;389;48.710;9.392;2022-10-19T04:50:59;14.60;99.90
814;DHT22;389;48.710;9.392;2022-10-19T04:53:26;14.60;99.90
814;DHT22;389;48.710;9.392;2022-10-19T04:55:51;14.70;99.90
814;DHT22;389;48.710;9.392;2022-10-19T04:58:17;14.70;99.90
814;DHT22;389;48.710;9.392;2022-10-19T05:00:43;14.70;99.90
814;DHT22;389;48.710;9.392;2022-10-19T05:03:08;14.70;99.90
814;DHT22;389;48.710;9.392;2022-10-19T05:05:34;14.80;99.90
814;DHT22;389;48.710;9.392;2022-10-19T05:08:00;14.80;99.90
814;DHT22;389;48.710;9.392;2022-10-19T05:10:26;14.80;99.90
814;DHT22;389;48.710;9.392;2022-10-19T05:12:52;14.80;99.90
814;DHT22;389;48.710;9.392;2022-10-19T05:15:18;14.80;99.90
814;DHT22;389;48.710;9.392;2022-10-19T05:17:43;14.80;99.90
814;DHT22;389;48.710;9.392;2022-10-19T05:20:09;14.80;99.90
814;DHT22;389;48.710;9.392;2022-10-19T05:22:37;14.80;99.90
814;DHT22;389;48.710;9.392;2022-10-19T05:25:03;14.80;99.90
814;DHT22;389;48.710;9.392;2022-10-19T05:27:28;14.80;99.90
814;DHT22;389;48.710;9.392;2022-10-19T05:29:55;14.80;99.90
814;DHT22;389;48.710;9.392;2022-10-19T05:32:20;14.90;99.90
814;DHT22;389;48.710;9.392;2022-10-19T05:34:46;14.80;99.90
814;DHT22;389;48.710;9.392;2022-10-19T05:37:11;14.90;99.90
814;DHT22;389;48.710;9.392;2022-10-19T05:39:37;14.80;99.90
814;DHT22;389;48.710;9.392;2022-10-19T05:42:03;14.80;99.90
814;DHT22;389;48.710;9.392;2022-10-19T05:44:28;14.80;99.90
814;DHT22;389;48.710;9.392;2022-10-19T05:46:54;14.80;99.90
814;DHT22;389;48.710;9.392;2022-10-19T05:49:21;14.80;99.90
814;DHT22;389;48.710;9.392;2022-10-19T05:51:47;14.90;99.90
814;DHT22;389;48.710;9.392;2022-10-19T05:54:14;14.90;99.90
814;DHT22;389;48.710;9.392;2022-10-19T05:56:40;14.90;99.90
814;DHT22;389;48.710;9.392;2022-10-19T05:59:07;14.90;99.90
814;DHT22;389;48.710;9.392;2022-10-19T06:01:35;14.90;99.90
814;DHT22;389;48.710;9.392;2022-10-19T06:04:04;14.90;99.90
814;DHT22;389;48.710;9.392;2022-10-19T06:06:32;14.90;99.90
814;DHT22;389;48.710;9.392;2022-10-19T06:08:58;14.90;99.90
814;DHT22;389;48.710;9.392;2022-10-19T06:11:27;14.90;99.90
814;DHT22;389;48.710;9.392;2022-10-19T06:13:55;15.00;99.90
814;DHT22;389;48.710;9.392;2022-10-19T06:16:22;15.00;99.90
814;DHT22;389;48.710;9.392;2022-10-19T06:18:48;15.00;99.90
814;DHT22;389;48.710;9.392;2022-10-19T06:21:19;15.10;99.90
814;DHT22;389;48.710;9.392;2022-10-19T06:23:51;15.10;99.90
814;DHT22;389;48.710;9.392;2022-10-19T06:26:18;15.10;99.90
814;DHT22;389;48.710;9.392;2022-10-19T06:28:44;15.10;99.90
814;DHT22;389;48.710;9.392;2022-10-19T06:31:10;15.10;99.90
814;DHT22;389;48.710;9.392;2022-10-19T06:33:38;15.20;99.90
814;DHT22;389;48.710;9.392;2022-10-19T06:36:10;15.20;99.90
814;DHT22;389;48.710;9.392;2022-10-19T06:38:36;15.20;99.90
814;DHT22;389;48.710;9.392;2022-10-19T06:41:02;15.30;99.90
814;DHT22;389;48.710;9.392;2022-10-19T06:43:28;15.40;99.90
814;DHT22;389;48.710;9.392;2022-10-19T06:45:54;15.40;99.90
814;DHT22;389;48.710;9.392;2022-10-19T06:48:19;15.40;99.90
814;DHT22;389;48.710;9.392;2022-10-19T06:50:45;15.50;99.90
814;DHT22;389;48.710;9.392;2022-10-19T06:53:11;15.50;99.90
814;DHT22;389;48.710;9.392;2022-10-19T06:55:37;15.60;99.90
814;DHT22;389;48.710;9.392;2022-10-19T06:58:03;15.60;99.90
814;DHT22;389;48.710;9.392;2022-10-19T07:00:29;15.70;99.90
814;DHT22;389;48.710;9.392;2022-10-19T07:02:58;15.70;99.90
814;DHT22;389;48.710;9.392;2022-10-19T07:05:23;15.70;99.90
814;DHT22;389;48.710;9.392;2022-10-19T07:07:49;15.80;99.90
814;DHT22;389;48.710;9.392;2022-10-19T07:10:15;15.70;99.90
814;DHT22;389;48.710;9.392;2022-10-19T07:12:40;15.70;99.90
814;DHT22;389;48.710;9.392;2022-10-19T07:15:06;15.70;99.90
814;DHT22;389;48.710;9.392;2022-10-19T07:17:32;15.70;99.90
814;DHT22;389;48.710;9.392;2022-10-19T07:19:58;15.70;99.90
814;DHT22;389;48.710;9.392;2022-10-19T07:22:24;15.80;99.90
814;DHT22;389;48.710;9.392;2022-10-19T07:24:49;15.80;99.90
814;DHT22;389;48.710;9.392;2022-10-19T07:27:16;15.90;99.90
814;DHT22;389;48.710;9.392;2022-10-19T07:29:45;15.90;99.90
814;DHT22;389;48.710;9.392;2022-10-19T07:32:11;15.90;99.90
814;DHT22;389;48.710;9.392;2022-10-19T07:34:37;16.00;99.90
814;DHT22;389;48.710;9.392;2022-10-19T07:37:04;16.00;99.90
814;DHT22;389;48.710;9.392;2022-10-19T07:39:29;16.10;99.90
814;DHT22;389;48.710;9.392;2022-10-19T07:41:55;16.20;99.90
814;DHT22;389;48.710;9.392;2022-10-19T07:44:21;16.20;99.90
814;DHT22;389;48.710;9.392;2022-10-19T07:46:46;16.20;99.90
814;DHT22;389;48.710;9.392;2022-10-19T07:49:14;16.20;99.90
814;DHT22;389;48.710;9.392;2022-10-19T07:51:44;16.30;99.90
814;DHT22;389;48.710;9.392;2022-10-19T07:54:10;16.30;99.90
814;DHT22;389;48.710;9.392;2022-10-19T07:56:36;16.20;99.90
814;DHT22;389;48.710;9.392;2022-10-19T07:59:03;16.20;99.90
814;DHT22;389;48.710;9.392;2022-10-19T08:01:32;16.30;99.90
814;DHT22;389;48.710;9.392;2022-10-19T08:03:59;16.40;99.90
814;DHT22;389;48.710;9.392;2022-10-19T08:06:27;16.50;99.90
814;DHT22;389;48.710;9.392;2022-10-19T08:08:53;16.50;99.90
814;DHT22;389;48.710;9.392;2022-10-19T08:11:24;16.60;99.90
814;DHT22;389;48.710;9.392;2022-10-19T08:13:52;16.70;99.90
814;DHT22;389;48.710;9.392;2022-10-19T08:16:26;16.80;99.90
814;DHT22;389;48.710;9.392;2022-10-19T08:18:54;16.90;99.90
814;DHT22;389;48.710;9.392;2022-10-19T08:21:20;17.00;99.90
814;DHT22;389;48.710;9.392;2022-10-19T08:23:46;17.10;99.90
814;DHT22;389;48.710;9.392;2022-10-19T08:26:11;17.20;99.90
814;DHT22;389;48.710;9.392;2022-10-19T08:28:37;17.30;99.90
814;DHT22;389;48.710;9.392;2022-10-19T08:31:15;17.40;99.90
814;DHT22;389;48.710;9.392;2022-10-19T08:33:42;17.50;99.90
814;DHT22;389;48.710;9.392;2022-10-19T08:36:09;17.70;99.90
814;DHT22;389;48.710;9.392;2022-10-19T08:38:36;17.80;99.90
814;DHT22;389;48.710;9.392;2022-10-19T08:41:21;17.80;99.90
814;DHT22;389;48.710;9.392;2022-10-19T08:49:19;17.90;99.90
814;DHT22;389;48.710;9.392;2022-10-19T08:51:50;17.90;99.90
814;DHT22;389;48.710;9.392;2022-10-19T08:54:17;18.00;99.90
814;DHT22;389;48.710;9.392;2022-10-19T08:56:55;18.00;99.90
814;DHT22;389;48.710;9.392;2022-10-19T08:59:39;18.00;99.90
814;DHT22;389;48.710;9.392;2022-10-19T09:05:04;18.20;99.90
814;DHT22;389;48.710;9.392;2022-10-19T09:07:35;18.40;99.90
814;DHT22;389;48.710;9.392;2022-10-19T09:12:55;18.60;99.90
814;DHT22;389;48.710;9.392;2022-10-19T09:15:46;18.60;99.90
814;DHT22;389;48.710;9.392;2022-10-19T09:18:26;18.70;99.70
814;DHT22;389;48.710;9.392;2022-10-19T09:21:06;18.70;99.50
814;DHT22;389;48.710;9.392;2022-10-19T09:26:22;18.80;99.50
814;DHT22;389;48.710;9.392;2022-10-19T09:31:44;18.90;99.50
814;DHT22;389;48.710;9.392;2022-10-19T09:36:49;19.10;99.30
814;DHT22;389;48.710;9.392;2022-10-19T09:39:17;19.10;99.00
814;DHT22;389;48.710;9.392;2022-10-19T09:41:51;19.20;98.90
814;DHT22;389;48.710;9.392;2022-10-19T09:44:18;19.30;98.90
814;DHT22;389;48.710;9.392;2022-10-19T09:46:57;19.40;98.90
814;DHT22;389;48.710;9.392;2022-10-19T09:49:46;19.50;98.90
814;DHT22;389;48.710;9.392;2022-10-19T09:52:33;19.70;98.70
814;DHT22;389;48.710;9.392;2022-10-19T09:55:09;19.90;98.60
814;DHT22;389;48.710;9.392;2022-10-19T09:57:43;19.90;97.40
814;DHT22;389;48.710;9.392;2022-10-19T10:00:20;20.00;96.90
814;DHT22;389;48.710;9.392;2022-10-19T10:02:54;20.00;96.80
814;DHT22;389;48.710;9.392;2022-10-19T10:05:30;20.10;96.90
814;DHT22;389;48.710;9.392;2022-10-19T10:07:56;20.00;96.80
814;DHT22;389;48.710;9.392;2022-10-19T10:10:26;20.00;97.00
814;DHT22;389;48.710;9.392;2022-10-19T10:12:52;20.10;96.90
814;DHT22;389;48.710;9.392;2022-10-19T10:15:24;20.00;96.70
814;DHT22;389;48.710;9.392;2022-10-19T10:17:51;20.20;96.80
814;DHT22;389;48.710;9.392;2022-10-19T10:20:19;20.30;96.80
814;DHT22;389;48.710;9.392;2022-10-19T10:22:54;20.30;96.70
814;DHT22;389;48.710;9.392;2022-10-19T10:25:28;20.30;96.10
814;DHT22;389;48.710;9.392;2022-10-19T10:28:17;20.20;96.10
814;DHT22;389;48.710;9.392;2022-10-19T10:30:44;20.10;96.20
814;DHT22;389;48.710;9.392;2022-10-19T10:33:16;20.10;96.40
814;DHT22;389;48.710;9.392;2022-10-19T10:35:48;20.00;96.20
814;DHT22;389;48.710;9.392;2022-10-19T10:38:26;20.00;96.20
814;DHT22;389;48.710;9.392;2022-10-19T10:40:59;20.00;96.20
814;DHT22;389;48.710;9.392;2022-10-19T10:43:34;19.90;96.00
814;DHT22;389;48.710;9.392;2022-10-19T10:46:07;19.70;95.90
814;DHT22;389;48.710;9.392;2022-10-19T10:48:41;19.70;96.20
814;DHT22;389;48.710;9.392;2022-10-19T10:51:36;19.70;96.30
814;DHT22;389;48.710;9.392;2022-10-19T10:56:34;19.80;96.30
814;DHT22;389;48.710;9.392;2022-10-19T10:59:49;19.90;96.30
814;DHT22;389;48.710;9.392;2022-10-19T11:05:23;20.30;95.60
814;DHT22;389;48.710;9.392;2022-10-19T11:08:37;20.60;95.30
814;DHT22;389;48.710;9.392;2022-10-19T11:13:57;20.80;94.40
814;DHT22;389;48.710;9.392;2022-10-19T11:16:34;20.80;94.10
814;DHT22;389;48.710;9.392;2022-10-19T11:19:25;20.80;94.10
814;DHT22;389;48.710;9.392;2022-10-19T11:33:06;21.10;93.60
814;DHT22;389;48.710;9.392;2022-10-19T11:35:48;21.00;93.60
814;DHT22;389;48.710;9.392;2022-10-19T11:46:24;21.10;93.50
814;DHT22;389;48.710;9.392;2022-10-19T11:54:34;21.20;93.20
814;DHT22;389;48.710;9.392;2022-10-19T11:57:15;21.30;93.00
814;DHT22;389;48.710;9.392;2022-10-19T12:13:53;21.20;93.10
814;DHT22;389;48.710;9.392;2022-10-19T12:16:20;21.20;93.20
814;DHT22;389;48.710;9.392;2022-10-19T12:18:50;21.20;92.70
814;DHT22;389;48.710;9.392;2022-10-19T12:21:38;21.10;92.60
814;DHT22;389;48.710;9.392;2022-10-19T12:24:23;20.90;92.70
814;DHT22;389;48.710;9.392;2022-10-19T12:26:50;20.80;92.90
814;DHT22;389;48.710;9.392;2022-10-19T12:29:32;20.80;93.00
814;DHT22;389;48.710;9.392;2022-10-19T12:31:59;20.90;93.10
814;DHT22;389;48.710;9.392;2022-10-19T12:43:39;21.20;92.60
814;DHT22;389;48.710;9.392;2022-10-19T12:46:23;21.30;92.60
814;DHT22;389;48.710;9.392;2022-10-19T12:51:56;21.40;92.40
814;DHT22;389;48.710;9.392;2022-10-19T12:54:34;21.40;91.90
814;DHT22;389;48.710;9.392;2022-10-19T12:57:02;21.40;91.70
814;DHT22;389;48.710;9.392;2022-10-19T12:59:35;21.40;91.80
814;DHT22;389;48.710;9.392;2022-10-19T13:02:17;21.50;91.80
814;DHT22;389;48.710;9.392;2022-10-19T13:04:52;21.50;91.40
814;DHT22;389;48.710;9.392;2022-10-19T13:07:19;21.30;91.60
814;DHT22;389;48.710;9.392;2022-10-19T13:09:46;21.20;91.60
814;DHT22;389;48.710;9.392;2022-10-19T13:15:01;20.90;91.90
814;DHT22;389;48.710;9.392;2022-10-19T13:25:31;20.50;92.60
814;DHT22;389;48.710;9.392;2022-10-19T13:41:14;20.00;93.10
814;DHT22;389;48.710;9.392;2022-10-19T14:00:19;20.20;93.40
814;DHT22;389;48.710;9.392;2022-10-19T14:02:59;20.20;93.10
814;DHT22;389;48.710;9.392;2022-10-19T14:11:44;20.00;93.00
814;DHT22;389;48.710;9.392;2022-10-19T14:19:24;19.70;93.40
814;DHT22;389;48.710;9.392;2022-10-19T14:21:56;19.60;93.50
814;DHT22;389;48.710;9.392;2022-10-19T14:26:55;19.60;93.70
814;DHT22;389;48.710;9.392;2022-10-19T14:29:32;19.60;93.90
814;DHT22;389;48.710;9.392;2022-10-19T14:32:00;19.50;94.00
814;DHT22;389;48.710;9.392;2022-10-19T14:34:26;19.60;94.00
814;DHT22;389;48.710;9.392;2022-10-19T14:36:56;19.50;94.00
814;DHT22;389;48.710;9.392;2022-10-19T14:39:31;19.50;94.20
814;DHT22;389;48.710;9.392;2022-10-19T14:42:03;19.50;94.20
814;DHT22;389;48.710;9.392;2022-10-19T14:44:38;19.40;94.00
814;DHT22;389;48.710;9.392;2022-10-19T14:47:21;19.40;94.10
814;DHT22;389;48.710;9.392;2022-10-19T14:49:51;19.30;94.10
814;DHT22;389;48.710;9.392;2022-10-19T14:52:37;19.30;94.30
814;DHT22;389;48.710;9.392;2022-10-19T14:55:08;19.30;94.30
814;DHT22;389;48.710;9.392;2022-10-19T14:57:40;19.30;94.40
814;DHT22;389;48.710;9.392;2022-10-19T15:00:16;19.20;94.50
814;DHT22;389;48.710;9.392;2022-10-19T15:03:03;19.20;94.60
814;DHT22;389;48.710;9.392;2022-10-19T15:05:35;19.10;94.40
814;DHT22;389;48.710;9.392;2022-10-19T15:08:21;19.10;94.40
814;DHT22;389;48.710;9.392;2022-10-19T15:10:49;19.10;94.50
814;DHT22;389;48.710;9.392;2022-10-19T15:13:26;19.10;94.60
814;DHT22;389;48.710;9.392;2022-10-19T15:15:54;19.10;94.60
814;DHT22;389;48.710;9.392;2022-10-19T15:18:36;19.10;94.80
814;DHT22;389;48.710;9.392;2022-10-19T15:28:32;19.00;94.90
814;DHT22;389;48.710;9.392;2022-10-19T15:34:34;18.90;95.10
814;DHT22;389;48.710;9.392;2022-10-19T15:40:43;18.70;95.30
814;DHT22;389;48.710;9.392;2022-10-19T15:56:20;18.30;95.80
814;DHT22;389;48.710;9.392;2022-10-19T15:58:51;18.30;95.90
814;DHT22;389;48.710;9.392;2022-10-19T16:01:20;18.20;95.90
814;DHT22;389;48.710;9.392;2022-10-19T16:03:56;18.10;96.30
814;DHT22;389;48.710;9.392;2022-10-19T16:06:25;18.00;96.30
814;DHT22;389;48.710;9.392;2022-10-19T16:08:51;18.00;96.50
814;DHT22;389;48.710;9.392;2022-10-19T16:11:21;17.80;96.60
814;DHT22;389;48.710;9.392;2022-10-19T16:13:50;17.70;96.80
814;DHT22;389;48.710;9.392;2022-10-19T16:16:25;17.70;96.90
814;DHT22;389;48.710;9.392;2022-10-19T16:18:52;17.60;96.90
814;DHT22;389;48.710;9.392;2022-10-19T16:21:20;17.50;97.00
814;DHT22;389;48.710;9.392;2022-10-19T16:23:46;17.30;97.10
814;DHT22;389;48.710;9.392;2022-10-19T16:26:14;17.30;97.20
814;DHT22;389;48.710;9.392;2022-10-19T16:28:47;17.20;97.30
814;DHT22;389;48.710;9.392;2022-10-19T16:31:13;17.10;97.40
814;DHT22;389;48.710;9.392;2022-10-19T16:33:39;17.00;97.40
814;DHT22;389;48.710;9.392;2022-10-19T16:36:06;16.90;97.50
814;DHT22;389;48.710;9.392;2022-10-19T16:38:33;16.90;97.50
814;DHT22;389;48.710;9.392;2022-10-19T16:41:00;16.80;97.50
814;DHT22;389;48.710;9.392;2022-10-19T16:43:38;16.70;97.60
814;DHT22;389;48.710;9.392;2022-10-19T16:46:04;16.60;97.70
814;DHT22;389;48.710;9.392;2022-10-19T16:48:30;16.50;97.90
814;DHT22;389;48.710;9.392;2022-10-19T16:53:31;16.30;98.30
814;DHT22;389;48.710;9.392;2022-10-19T16:56:05;16.20;98.40
814;DHT22;389;48.710;9.392;2022-10-19T16:58:32;16.10;98.60
814;DHT22;389;48.710;9.392;2022-10-19T17:00:57;16.00;98.70
814;DHT22;389;48.710;9.392;2022-10-19T17:03:29;15.90;98.80
814;DHT22;389;48.710;9.392;2022-10-19T17:05:54;15.80;98.90
814;DHT22;389;48.710;9.392;2022-10-19T17:08:25;15.80;99.00
814;DHT22;389;48.710;9.392;2022-10-19T17:10:50;15.70;99.10
814;DHT22;389;48.710;9.392;2022-10-19T17:13:16;15.60;99.20
814;DHT22;389;48.710;9.392;2022-10-19T17:15:42;15.50;99.30
814;DHT22;389;48.710;9.392;2022-10-19T17:18:07;15.40;99.30
814;DHT22;389;48.710;9.392;2022-10-19T17:20:33;15.30;99.40
814;DHT22;389;48.710;9.392;2022-10-19T17:22:59;15.30;99.50
814;DHT22;389;48.710;9.392;2022-10-19T17:25:25;15.20;99.60
814;DHT22;389;48.710;9.392;2022-10-19T17:27:51;15.10;99.70
814;DHT22;389;48.710;9.392;2022-10-19T17:30:17;15.00;99.80
814;DHT22;389;48.710;9.392;2022-10-19T17:32:50;15.00;99.90
814;DHT22;389;48.710;9.392;2022-10-19T17:35:15;14.90;99.90
814;DHT22;389;48.710;9.392;2022-10-19T17:37:41;14.90;99.90
814;DHT22;389;48.710;9.392;2022-10-19T17:40:07;14.80;99.90
814;DHT22;389;48.710;9.392;2022-10-19T17:42:33;14.70;99.90
814;DHT22;389;48.710;9.392;2022-10-19T17:45:01;14.70;99.90
814;DHT22;389;48.710;9.392;2022-10-19T17:47:26;14.60;99.90
814;DHT22;389;48.710;9.392;2022-10-19T17:49:52;14.50;99.90
814;DHT22;389;48.710;9.392;2022-10-19T17:52:17;14.50;99.90
814;DHT22;389;48.710;9.392;2022-10-19T17:54:43;14.40;99.90
814;DHT22;389;48.710;9.392;2022-10-19T17:57:12;14.30;99.90
814;DHT22;389;48.710;9.392;2022-10-19T17:59:37;14.30;99.90
814;DHT22;389;48.710;9.392;2022-10-19T18:02:03;14.20;99.90
814;DHT22;389;48.710;9.392;2022-10-19T18:04:31;14.10;99.90
814;DHT22;389;48.710;9.392;2022-10-19T18:06:57;14.10;99.90
814;DHT22;389;48.710;9.392;2022-10-19T18:09:23;14.00;99.90
814;DHT22;389;48.710;9.392;2022-10-19T18:11:48;13.90;99.90
814;DHT22;389;48.710;9.392;2022-10-19T18:14:14;13.90;99.90
814;DHT22;389;48.710;9.392;2022-10-19T18:16:43;13.80;99.90
814;DHT22;389;48.710;9.392;2022-10-19T18:19:11;13.70;99.90
814;DHT22;389;48.710;9.392;2022-10-19T18:21:39;13.80;99.90
814;DHT22;389;48.710;9.392;2022-10-19T18:24:07;13.60;99.90
814;DHT22;389;48.710;9.392;2022-10-19T18:26:33;13.60;99.90
814;DHT22;389;48.710;9.392;2022-10-19T18:29:05;13.60;99.90
814;DHT22;389;48.710;9.392;2022-10-19T18:31:32;13.50;99.90
814;DHT22;389;48.710;9.392;2022-10-19T18:34:03;13.40;99.90
814;DHT22;389;48.710;9.392;2022-10-19T18:36:29;13.40;99.90
814;DHT22;389;48.710;9.392;2022-10-19T18:38:57;13.30;99.90
814;DHT22;389;48.710;9.392;2022-10-19T18:41:24;13.30;99.90
814;DHT22;389;48.710;9.392;2022-10-19T18:43:55;13.10;99.90
814;DHT22;389;48.710;9.392;2022-10-19T18:46:22;13.10;99.90
814;DHT22;389;48.710;9.392;2022-10-19T18:48:48;13.10;99.90
814;DHT22;389;48.710;9.392;2022-10-19T18:51:15;13.10;99.90
814;DHT22;389;48.710;9.392;2022-10-19T18:53:42;13.00;99.90
814;DHT22;389;48.710;9.392;2022-10-19T18:56:10;13.00;99.90
814;DHT22;389;48.710;9.392;2022-10-19T18:58:36;13.00;99.90
814;DHT22;389;48.710;9.392;2022-10-19T19:01:11;12.80;99.90
814;DHT22;389;48.710;9.392;2022-10-19T19:03:40;12.80;99.90
814;DHT22;389;48.710;9.392;2022-10-19T19:06:11;12.70;99.90
814;DHT22;389;48.710;9.392;2022-10-19T19:08:37;12.70;99.90
814;DHT22;389;48.710;9.392;2022-10-19T19:11:15;12.70;99.90
814;DHT22;389;48.710;9.392;2022-10-19T19:13:42;12.60;99.90
814;DHT22;389;48.710;9.392;2022-10-19T19:16:11;12.50;99.90
814;DHT22;389;48.710;9.392;2022-10-19T19:18:37;12.60;99.90
814;DHT22;389;48.710;9.392;2022-10-19T19:21:04;12.50;99.90
814;DHT22;389;48.710;9.392;2022-10-19T19:23:36;12.40;99.90
814;DHT22;389;48.710;9.392;2022-10-19T19:26:02;12.50;99.90
814;DHT22;389;48.710;9.392;2022-10-19T19:28:28;12.40;99.90
814;DHT22;389;48.710;9.392;2022-10-19T19:30:53;12.40;99.90
814;DHT22;389;48.710;9.392;2022-10-19T19:33:19;12.50;99.90
814;DHT22;389;48.710;9.392;2022-10-19T19:35:46;12.40;99.90
814;DHT22;389;48.710;9.392;2022-10-19T19:38:13;12.50;99.90
814;DHT22;389;48.710;9.392;2022-10-19T19:40:40;12.40;99.90
814;DHT22;389;48.710;9.392;2022-10-19T19:43:10;12.40;99.90
814;DHT22;389;48.710;9.392;2022-10-19T19:45:36;12.40;99.90
814;DHT22;389;48.710;9.392;2022-10-19T19:48:03;12.40;99.90